Time;durP1;ratioP1;P1;durP2;ratioP2;P2;SDS_P1;SDS_P2;PMS_P1;PMS_P2;Temp;Humidity;BMP_temperature;BMP_pressure;BME280_temperature;BME280_humidity;BME280_pressure;Samples;Min_cycle;Max_cycle;Signal;HPM_P1;HPM_P2
2022/09/02 00:01:33;;;;;;;4.10;3.70;;;17.90;99.90;;;;;;5025348;28;20410;-74
2022/09/02 00:04:02;;;;;;;3.20;3.00;;;17.80;99.90;;;;;;5019901;28;20428;-74
2022/09/02 00:06:30;;;;;;;3.17;2.87;;;17.80;99.90;;;;;;5040842;28;20451;-74
2022/09/02 00:08:56;;;;;;;3.30;3.10;;;17.80;99.90;;;;;;5026367;28;20401;-74
2022/09/02 00:11:24;;;;;;;3.67;3.38;;;17.70;99.90;;;;;;5039665;28;20869;-73
2022/09/02 00:13:50;;;;;;;3.50;3.20;;;17.80;99.90;;;;;;5034284;28;20472;-74
2022/09/02 00:16:16;;;;;;;3.50;3.30;;;17.80;99.90;;;;;;5038687;28;20768;-74
2022/09/02 00:18:43;;;;;;;3.70;3.40;;;17.70;99.90;;;;;;5038781;28;20496;-74
2022/09/02 00:21:10;;;;;;;3.50;3.20;;;17.60;99.90;;;;;;5038973;28;20403;-75
2022/09/02 00:23:37;;;;;;;3.80;3.50;;;17.50;99.90;;;;;;5021112;28;20401;-74
2022/09/02 00:26:03;;;;;;;3.22;2.92;;;17.50;99.90;;;;;;5046407;28;20929;-73
2022/09/02 00:28:29;;;;;;;4.30;3.33;;;17.50;99.90;;;;;;5041731;28;20478;-74
2022/09/02 00:30:55;;;;;;;3.40;3.10;;;17.50;99.90;;;;;;5041277;28;20464;-74
2022/09/02 00:33:20;;;;;;;3.27;3.07;;;17.40;99.90;;;;;;5039504;28;20812;-74
2022/09/02 00:35:46;;;;;;;3.63;3.00;;;17.40;99.90;;;;;;5035739;28;20407;-74
2022/09/02 00:38:12;;;;;;;3.33;3.03;;;17.50;99.90;;;;;;5026173;28;20906;-74
2022/09/02 00:40:44;;;;;;;3.40;3.10;;;17.30;99.90;;;;;;5036704;28;20397;-74
2022/09/02 00:43:10;;;;;;;2.90;2.70;;;17.30;99.90;;;;;;5046680;28;20728;-74
2022/09/02 00:45:36;;;;;;;3.63;3.30;;;17.20;99.90;;;;;;5048104;28;20409;-74
2022/09/02 00:48:03;;;;;;;3.45;3.20;;;17.20;99.90;;;;;;5041786;28;20486;-74
2022/09/02 00:50:33;;;;;;;3.40;3.20;;;17.10;99.90;;;;;;5038048;28;20409;-74
2022/09/02 00:53:05;;;;;;;4.27;3.27;;;17.10;99.90;;;;;;5042912;28;20462;-74
2022/09/02 00:55:34;;;;;;;3.40;3.20;;;17.00;99.90;;;;;;5040750;28;20412;-74
2022/09/02 00:58:07;;;;;;;3.75;3.10;;;16.90;99.90;;;;;;5036294;28;20464;-74
2022/09/02 01:00:37;;;;;;;3.67;3.45;;;16.80;99.90;;;;;;5036447;28;20397;-73
2022/09/02 01:03:06;;;;;;;3.60;3.40;;;16.90;99.90;;;;;;5026627;28;20488;-74
2022/09/02 01:05:35;;;;;;;3.55;3.33;;;16.90;99.90;;;;;;5018872;28;20406;-74
2022/09/02 01:08:02;;;;;;;3.40;2.90;;;16.80;99.90;;;;;;5041659;28;20412;-74
2022/09/02 01:10:33;;;;;;;3.60;3.30;;;16.90;99.90;;;;;;5035445;28;20404;-74
2022/09/02 01:13:07;;;;;;;6.53;3.20;;;16.70;99.90;;;;;;5040281;28;20420;-74
2022/09/02 01:15:36;;;;;;;3.53;3.20;;;16.70;99.90;;;;;;5038058;28;20775;-73
2022/09/02 01:18:03;;;;;;;3.20;2.90;;;16.60;99.90;;;;;;5018588;28;20413;-74
2022/09/02 01:20:29;;;;;;;4.17;3.10;;;16.60;99.90;;;;;;5037376;28;20693;-74
2022/09/02 01:22:57;;;;;;;3.40;3.20;;;16.60;99.90;;;;;;5040270;28;20402;-74
2022/09/02 01:25:26;;;;;;;3.50;3.20;;;16.50;99.90;;;;;;5044380;28;20417;-73
2022/09/02 01:27:51;;;;;;;3.17;2.97;;;16.50;99.90;;;;;;5028033;28;20597;-73
2022/09/02 01:30:22;;;;;;;3.60;3.30;;;16.50;99.90;;;;;;5038416;28;20436;-74
2022/09/02 01:32:48;;;;;;;3.42;3.00;;;16.40;99.90;;;;;;5037013;28;20480;-74
2022/09/02 01:35:14;;;;;;;3.65;3.35;;;16.40;99.90;;;;;;5038021;28;20410;-74
2022/09/02 01:37:41;;;;;;;3.30;3.10;;;16.30;99.90;;;;;;5040186;28;20397;-74
2022/09/02 01:40:12;;;;;;;3.75;3.45;;;16.10;99.90;;;;;;5038457;28;20434;-74
2022/09/02 01:42:38;;;;;;;3.90;3.08;;;16.10;99.90;;;;;;5040383;28;20914;-74
2022/09/02 01:45:05;;;;;;;3.40;3.10;;;16.10;99.90;;;;;;5041307;28;20468;-74
2022/09/02 01:47:31;;;;;;;3.30;2.92;;;16.10;99.90;;;;;;5044938;28;20864;-75
2022/09/02 01:49:57;;;;;;;3.60;3.30;;;16.00;99.90;;;;;;5044024;28;20407;-74
2022/09/02 01:52:25;;;;;;;3.55;3.35;;;16.00;99.90;;;;;;5042683;28;20417;-74
2022/09/02 01:54:50;;;;;;;3.20;3.00;;;15.90;99.90;;;;;;5039959;28;20409;-74
2022/09/02 01:57:16;;;;;;;3.50;3.20;;;15.90;99.90;;;;;;5047593;28;20401;-74
2022/09/02 01:59:43;;;;;;;3.80;3.50;;;15.90;99.90;;;;;;5043419;28;20776;-74
2022/09/02 02:02:09;;;;;;;3.70;3.40;;;15.80;99.90;;;;;;5047069;28;20752;-74
2022/09/02 02:04:35;;;;;;;3.72;3.42;;;15.80;99.90;;;;;;5041136;28;20419;-74
2022/09/02 02:07:01;;;;;;;3.97;3.30;;;15.70;99.90;;;;;;5025884;28;20399;-74
2022/09/02 02:09:27;;;;;;;3.17;2.97;;;15.90;99.90;;;;;;5046391;28;20407;-74
2022/09/02 02:11:53;;;;;;;3.70;3.40;;;15.80;99.90;;;;;;5041128;28;20413;-74
2022/09/02 02:14:19;;;;;;;3.47;3.17;;;15.80;99.90;;;;;;5044871;28;20509;-73
2022/09/02 02:16:45;;;;;;;3.50;3.20;;;15.70;99.90;;;;;;5037321;28;20472;-74
2022/09/02 02:19:11;;;;;;;3.33;3.03;;;15.70;99.90;;;;;;5047190;28;20478;-74
2022/09/02 02:21:36;;;;;;;3.30;3.10;;;15.70;99.90;;;;;;5019694;28;21051;-74
2022/09/02 02:24:02;;;;;;;3.10;2.90;;;15.70;99.90;;;;;;5043362;28;20958;-74
2022/09/02 02:26:29;;;;;;;3.07;2.83;;;15.70;99.90;;;;;;5042327;28;20429;-74
2022/09/02 02:28:54;;;;;;;3.40;3.10;;;15.80;99.90;;;;;;5027877;28;20434;-73
2022/09/02 02:31:20;;;;;;;3.30;3.10;;;15.60;99.90;;;;;;5040395;28;20452;-75
2022/09/02 02:33:46;;;;;;;4.43;3.10;;;15.70;99.90;;;;;;5043861;28;20409;-74
2022/09/02 02:36:12;;;;;;;3.20;2.90;;;15.70;99.90;;;;;;5047094;28;20510;-73
2022/09/02 02:38:39;;;;;;;3.20;2.90;;;15.70;99.90;;;;;;5042918;28;20926;-74
2022/09/02 02:41:05;;;;;;;2.78;2.58;;;15.70;99.90;;;;;;5042180;28;20417;-73
2022/09/02 02:43:35;;;;;;;3.23;3.00;;;15.70;99.90;;;;;;5044013;28;20476;-73
2022/09/02 02:46:02;;;;;;;3.20;3.00;;;15.60;99.90;;;;;;5039688;28;20901;-72
2022/09/02 02:48:27;;;;;;;3.38;3.08;;;15.50;99.90;;;;;;5041689;28;20440;-73
2022/09/02 02:50:53;;;;;;;2.90;2.65;;;15.50;99.90;;;;;;5041849;28;20495;-72
2022/09/02 02:53:19;;;;;;;3.00;2.80;;;15.50;99.90;;;;;;5039537;28;20394;-73
2022/09/02 02:55:44;;;;;;;3.20;2.90;;;15.40;99.90;;;;;;5039197;28;20412;-73
2022/09/02 02:58:10;;;;;;;3.50;2.60;;;15.50;99.90;;;;;;5042968;28;20401;-73
2022/09/02 03:00:36;;;;;;;3.22;2.92;;;15.50;99.90;;;;;;5045950;28;20905;-73
2022/09/02 03:03:07;;;;;;;3.00;2.80;;;15.40;99.90;;;;;;5051079;28;20396;-73
2022/09/02 03:05:36;;;;;;;3.13;2.90;;;15.40;99.90;;;;;;5043358;28;20444;-73
2022/09/02 03:08:04;;;;;;;4.03;2.70;;;15.30;99.90;;;;;;5035423;28;20389;-72
2022/09/02 03:10:31;;;;;;;3.40;2.80;;;15.40;99.90;;;;;;5039527;28;20483;-73
2022/09/02 03:12:58;;;;;;;2.77;2.57;;;15.30;99.90;;;;;;5023095;28;20432;-73
2022/09/02 03:15:24;;;;;;;2.78;2.58;;;15.10;99.90;;;;;;5039329;28;20540;-72
2022/09/02 03:17:49;;;;;;;3.00;2.70;;;15.20;99.90;;;;;;5042524;28;20844;-73
2022/09/02 03:20:17;;;;;;;3.30;3.10;;;15.20;99.90;;;;;;5033453;28;20391;-73
2022/09/02 03:22:47;;;;;;;2.92;2.70;;;15.10;99.90;;;;;;5039181;28;20507;-72
2022/09/02 03:25:17;;;;;;;2.97;2.78;;;15.20;99.90;;;;;;5037053;28;20470;-72
2022/09/02 03:27:44;;;;;;;3.00;2.80;;;15.10;99.90;;;;;;5044324;28;20412;-73
2022/09/02 03:30:13;;;;;;;3.50;3.20;;;15.00;99.90;;;;;;5047952;28;20820;-73
2022/09/02 03:32:38;;;;;;;2.85;2.65;;;15.00;99.90;;;;;;5017842;28;20398;-73
2022/09/02 03:35:06;;;;;;;2.80;2.60;;;14.90;99.90;;;;;;5051384;28;20389;-73
2022/09/02 03:37:32;;;;;;;2.90;2.60;;;14.90;99.90;;;;;;5051011;28;20389;-73
2022/09/02 03:40:00;;;;;;;2.53;2.33;;;15.00;99.90;;;;;;5050321;28;20397;-73
2022/09/02 03:42:25;;;;;;;2.80;2.50;;;14.90;99.90;;;;;;5041811;28;20452;-71
2022/09/02 03:44:51;;;;;;;3.20;2.57;;;14.80;99.90;;;;;;5044516;28;20438;-72
2022/09/02 03:47:19;;;;;;;2.67;2.47;;;14.90;99.90;;;;;;5039212;28;20404;-73
2022/09/02 03:49:45;;;;;;;2.87;2.60;;;14.90;99.90;;;;;;5038270;28;20398;-73
2022/09/02 03:52:10;;;;;;;3.00;2.80;;;14.90;99.90;;;;;;5041936;28;20460;-73
2022/09/02 03:54:36;;;;;;;2.80;2.60;;;14.80;99.90;;;;;;5035927;28;20411;-74
2022/09/02 03:57:01;;;;;;;2.83;2.50;;;14.60;99.90;;;;;;5039056;28;20730;-72
2022/09/02 03:59:27;;;;;;;2.50;2.30;;;14.70;99.90;;;;;;5031144;28;20391;-73
2022/09/02 04:01:53;;;;;;;2.60;2.40;;;14.60;99.90;;;;;;5030985;28;20996;-73
2022/09/02 04:04:19;;;;;;;2.67;2.47;;;14.60;99.90;;;;;;5037136;28;20402;-73
2022/09/02 04:06:44;;;;;;;2.60;2.40;;;14.60;99.90;;;;;;5041682;28;20385;-73
2022/09/02 04:09:10;;;;;;;2.60;2.40;;;14.70;99.90;;;;;;5041077;28;20929;-72
2022/09/02 04:11:41;;;;;;;2.60;2.40;;;14.60;99.90;;;;;;5030758;28;20390;-73
2022/09/02 04:14:07;;;;;;;2.50;2.30;;;14.50;99.90;;;;;;5037264;28;20408;-73
2022/09/02 04:16:33;;;;;;;2.85;2.55;;;14.50;99.90;;;;;;5039321;28;20484;-74
2022/09/02 04:19:02;;;;;;;3.70;2.33;;;14.50;99.90;;;;;;5034826;28;20399;-73
2022/09/02 04:21:31;;;;;;;2.20;1.90;;;14.40;99.90;;;;;;5032629;28;20447;-74
2022/09/02 04:23:56;;;;;;;2.78;2.58;;;14.50;99.90;;;;;;5040531;28;20891;-73
2022/09/02 04:26:22;;;;;;;3.15;2.85;;;14.60;99.90;;;;;;5021915;28;20462;-74
2022/09/02 04:28:49;;;;;;;3.30;2.95;;;14.60;99.90;;;;;;5030506;28;20433;-74
2022/09/02 04:31:18;;;;;;;2.72;2.53;;;14.60;99.90;;;;;;5030405;28;20398;-72
2022/09/02 04:33:43;;;;;;;2.50;2.30;;;14.50;99.90;;;;;;5041528;28;20403;-73
2022/09/02 04:36:11;;;;;;;2.43;2.33;;;14.50;99.90;;;;;;5041420;28;20417;-73
2022/09/02 04:38:37;;;;;;;2.38;2.17;;;14.50;99.90;;;;;;5030245;28;20439;-74
2022/09/02 04:41:08;;;;;;;2.50;2.30;;;14.50;99.90;;;;;;5031665;28;20415;-73
2022/09/02 04:43:34;;;;;;;2.50;2.20;;;14.60;99.90;;;;;;5038071;28;20405;-74
2022/09/02 04:46:04;;;;;;;2.50;2.30;;;14.60;99.90;;;;;;5045436;28;20413;-73
2022/09/02 04:48:29;;;;;;;2.60;2.40;;;14.60;99.90;;;;;;5039856;28;20910;-73
2022/09/02 04:50:55;;;;;;;2.30;2.10;;;14.60;99.90;;;;;;5045747;28;20432;-74
2022/09/02 04:53:20;;;;;;;2.60;2.40;;;14.50;99.90;;;;;;5031235;28;20477;-74
2022/09/02 04:55:46;;;;;;;2.30;2.20;;;14.40;99.90;;;;;;5024744;28;20528;-74
2022/09/02 04:58:13;;;;;;;2.57;2.37;;;14.50;99.90;;;;;;5040677;28;20960;-73
2022/09/02 05:00:40;;;;;;;2.20;2.00;;;14.60;99.90;;;;;;5037854;28;20413;-73
2022/09/02 05:03:05;;;;;;;2.50;2.30;;;14.60;99.90;;;;;;5040282;28;20396;-73
2022/09/02 05:05:32;;;;;;;2.30;2.20;;;14.50;99.90;;;;;;5038241;28;20387;-74
2022/09/02 05:07:58;;;;;;;2.25;2.15;;;14.50;99.90;;;;;;5029953;28;20418;-72
2022/09/02 05:10:23;;;;;;;2.47;2.28;;;14.60;99.90;;;;;;5041505;28;20577;-73
2022/09/02 05:12:51;;;;;;;2.53;2.13;;;14.70;99.90;;;;;;5040744;28;20406;-73
2022/09/02 05:15:16;;;;;;;2.55;2.20;;;14.60;99.90;;;;;;5037514;28;20413;-73
2022/09/02 05:17:42;;;;;;;2.57;2.10;;;14.80;99.90;;;;;;5037100;28;20424;-74
2022/09/02 05:20:08;;;;;;;3.17;2.70;;;14.70;99.90;;;;;;5032454;28;20786;-73
2022/09/02 05:22:35;;;;;;;2.70;2.10;;;14.60;99.90;;;;;;5043415;28;20457;-74
2022/09/02 05:25:01;;;;;;;2.40;2.20;;;14.60;99.90;;;;;;5042032;28;20387;-73
2022/09/02 05:27:27;;;;;;;2.40;2.20;;;14.60;99.90;;;;;;5020884;28;20395;-73
2022/09/02 05:29:58;;;;;;;2.38;2.17;;;14.60;99.90;;;;;;5027794;28;20738;-73
2022/09/02 05:32:24;;;;;;;2.80;2.10;;;14.70;99.90;;;;;;5041062;28;20414;-74
2022/09/02 05:34:50;;;;;;;2.40;2.20;;;14.70;99.90;;;;;;5041749;28;20496;-73
2022/09/02 05:37:16;;;;;;;2.67;2.20;;;14.70;99.90;;;;;;5043062;28;20815;-72
2022/09/02 05:39:41;;;;;;;3.33;2.00;;;14.80;99.90;;;;;;5015922;28;20490;-73
2022/09/02 05:42:07;;;;;;;2.30;2.10;;;14.80;99.90;;;;;;5040355;28;20403;-73
2022/09/02 05:44:34;;;;;;;1.90;1.80;;;14.80;99.90;;;;;;5044455;28;20402;-72
2022/09/02 05:47:00;;;;;;;2.50;2.30;;;14.90;99.90;;;;;;5047792;28;20405;-72
2022/09/02 05:49:25;;;;;;;2.20;2.00;;;14.90;99.90;;;;;;5045098;28;20901;-74
2022/09/02 05:51:53;;;;;;;2.40;2.20;;;14.90;99.90;;;;;;5041025;28;20456;-73
2022/09/02 05:54:35;;;;;;;2.00;1.90;;;14.90;99.90;;;;;;5039500;28;20511;-73
2022/09/02 05:57:04;;;;;;;4.13;2.10;;;15.00;99.90;;;;;;5043545;28;20381;-72
2022/09/02 05:59:38;;;;;;;2.40;2.10;;;15.10;99.90;;;;;;5041961;28;20391;-73
2022/09/02 06:02:05;;;;;;;2.38;2.17;;;15.10;99.90;;;;;;5047185;28;20412;-74
2022/09/02 06:04:31;;;;;;;2.40;2.20;;;15.00;99.90;;;;;;5026699;28;20446;-73
2022/09/02 06:06:56;;;;;;;2.35;2.15;;;15.20;99.90;;;;;;5032927;28;20401;-72
2022/09/02 06:09:23;;;;;;;2.20;2.00;;;15.30;99.90;;;;;;5047694;28;20401;-75
2022/09/02 06:11:50;;;;;;;2.40;2.20;;;15.40;99.90;;;;;;5041083;28;20898;-74
2022/09/02 06:14:18;;;;;;;2.17;2.00;;;15.40;99.90;;;;;;5042717;28;20730;-75
2022/09/02 06:16:45;;;;;;;1.92;1.80;;;15.40;99.90;;;;;;5032776;28;20391;-75
2022/09/02 06:19:11;;;;;;;2.35;2.15;;;15.50;99.90;;;;;;5033027;28;20381;-74
2022/09/02 06:21:37;;;;;;;2.40;1.60;;;15.50;99.90;;;;;;5042634;28;20906;-75
2022/09/02 06:24:07;;;;;;;2.60;2.40;;;15.60;99.90;;;;;;5026634;28;20427;-74
2022/09/02 06:26:32;;;;;;;3.40;2.30;;;15.70;99.90;;;;;;5034003;28;20415;-74
2022/09/02 06:28:58;;;;;;;2.40;2.20;;;15.90;99.90;;;;;;5022920;28;20395;-75
2022/09/02 06:31:24;;;;;;;2.50;2.30;;;15.90;99.90;;;;;;5021928;28;21037;-74
2022/09/02 06:33:54;;;;;;;2.30;2.10;;;16.00;99.90;;;;;;5023053;28;20742;-75
2022/09/02 06:36:22;;;;;;;2.78;2.00;;;16.00;99.90;;;;;;5051258;28;20389;-75
2022/09/02 06:38:49;;;;;;;2.10;2.00;;;15.90;99.90;;;;;;5033878;28;20903;-74
2022/09/02 06:41:21;;;;;;;6.22;2.67;;;15.90;99.90;;;;;;5043820;28;20964;-74
2022/09/02 06:43:47;;;;;;;1.75;1.65;;;16.00;99.90;;;;;;5049043;28;20401;-76
2022/09/02 06:46:22;;;;;;;2.50;2.00;;;16.10;99.90;;;;;;5042420;28;20907;-75
2022/09/02 06:48:48;;;;;;;2.13;1.90;;;16.30;99.90;;;;;;5038861;28;20556;-75
2022/09/02 06:51:38;;;;;;;2.00;1.80;;;16.50;99.90;;;;;;5049899;28;20436;-75
2022/09/02 06:54:06;;;;;;;1.90;1.80;;;16.50;99.90;;;;;;5025674;28;20393;-74
2022/09/02 06:56:33;;;;;;;4.35;3.67;;;16.60;99.90;;;;;;5052255;28;20404;-75
2022/09/02 06:58:59;;;;;;;15.60;10.77;;;16.80;99.90;;;;;;5052033;28;20480;-76
2022/09/02 07:01:28;;;;;;;3.07;2.00;;;16.80;99.90;;;;;;5025255;28;20403;-77
2022/09/02 07:06:40;;;;;;;2.00;1.90;;;17.10;99.90;;;;;;5047206;28;20389;-76
2022/09/02 07:09:08;;;;;;;3.17;2.35;;;17.10;99.90;;;;;;5043643;28;20390;-75
2022/09/02 07:11:34;;;;;;;4.17;2.07;;;17.20;99.90;;;;;;5051882;28;20385;-77
2022/09/02 07:14:00;;;;;;;2.22;2.03;;;17.30;99.90;;;;;;5051678;28;20389;-76
2022/09/02 07:16:28;;;;;;;2.20;2.00;;;17.40;99.90;;;;;;5051893;28;20756;-76
2022/09/02 07:18:55;;;;;;;2.30;2.03;;;17.60;99.90;;;;;;5051817;28;20397;-75
2022/09/02 07:21:21;;;;;;;2.40;2.20;;;17.70;99.90;;;;;;5033814;28;20409;-75
2022/09/02 07:23:46;;;;;;;2.33;2.20;;;17.70;99.90;;;;;;5051163;28;20381;-74
2022/09/02 07:26:14;;;;;;;2.38;2.22;;;17.80;99.90;;;;;;5031930;28;20391;-76
2022/09/02 07:28:41;;;;;;;2.90;2.30;;;17.70;99.90;;;;;;5031679;28;20446;-76
2022/09/02 07:31:09;;;;;;;2.95;2.53;;;17.80;99.90;;;;;;5013999;28;20975;-76
2022/09/02 07:33:35;;;;;;;2.10;2.00;;;17.80;99.90;;;;;;5031251;28;20395;-76
2022/09/02 07:36:03;;;;;;;2.10;1.90;;;18.00;99.90;;;;;;5031467;28;20441;-75
2022/09/02 07:38:30;;;;;;;2.30;2.10;;;18.10;99.90;;;;;;5031505;28;20379;-74
2022/09/02 07:40:55;;;;;;;2.80;2.20;;;18.30;99.90;;;;;;5036633;28;20405;-73
2022/09/02 07:43:21;;;;;;;2.78;2.30;;;18.50;99.90;;;;;;5021893;28;20728;-72
2022/09/02 07:45:47;;;;;;;2.83;2.63;;;18.60;99.90;;;;;;5031506;28;20456;-73
2022/09/02 07:48:14;;;;;;;2.60;2.40;;;18.60;99.90;;;;;;5031250;28;20824;-74
2022/09/02 07:50:40;;;;;;;2.90;2.50;;;18.60;99.90;;;;;;5031291;28;20383;-74
2022/09/02 07:53:07;;;;;;;2.90;2.30;;;18.60;99.90;;;;;;5031217;28;20391;-74
2022/09/02 07:55:35;;;;;;;3.50;2.42;;;18.60;99.90;;;;;;5035625;28;20429;-74
2022/09/02 07:58:02;;;;;;;2.20;2.10;;;18.60;99.90;;;;;;5039447;28;20383;-74
2022/09/02 08:00:28;;;;;;;2.58;2.38;;;18.60;99.90;;;;;;5025385;28;20953;-73
2022/09/02 08:02:54;;;;;;;2.70;2.50;;;18.60;99.90;;;;;;5043459;28;20424;-73
2022/09/02 08:05:21;;;;;;;2.60;2.40;;;18.60;99.90;;;;;;5024468;28;20402;-73
2022/09/02 08:07:46;;;;;;;3.13;2.20;;;18.70;99.90;;;;;;5024665;28;20389;-74
2022/09/02 08:10:13;;;;;;;3.10;2.38;;;18.80;99.90;;;;;;5034827;28;20996;-73
2022/09/02 08:12:41;;;;;;;2.50;2.30;;;18.70;99.90;;;;;;5045360;28;20397;-74
2022/09/02 08:15:09;;;;;;;3.28;2.60;;;18.70;99.90;;;;;;5047364;28;20986;-74
2022/09/02 08:17:35;;;;;;;2.83;2.63;;;18.70;99.90;;;;;;5047001;28;20513;-73
2022/09/02 08:20:01;;;;;;;4.20;3.10;;;18.80;99.90;;;;;;5030653;28;20387;-75
2022/09/02 08:22:33;;;;;;;3.33;3.03;;;18.70;99.90;;;;;;5020722;28;20429;-73
2022/09/02 08:24:58;;;;;;;4.60;3.40;;;18.80;99.90;;;;;;5029287;28;20450;-74
2022/09/02 08:27:26;;;;;;;3.37;3.03;;;18.70;99.90;;;;;;5037859;28;20925;-75
2022/09/02 08:29:52;;;;;;;33.88;29.40;;;18.70;99.90;;;;;;5017905;28;20768;-75
2022/09/02 08:32:18;;;;;;;7.70;6.90;;;18.80;99.90;;;;;;5038832;28;20492;-75
2022/09/02 08:34:43;;;;;;;3.03;2.83;;;18.80;99.90;;;;;;5041309;28;20409;-75
2022/09/02 08:37:09;;;;;;;3.90;3.00;;;18.90;99.90;;;;;;5026638;28;20399;-74
2022/09/02 08:39:36;;;;;;;3.73;3.43;;;19.10;99.90;;;;;;5043036;28;20531;-74
2022/09/02 08:42:22;;;;;;;3.35;2.70;;;19.00;99.90;;;;;;5038409;28;20405;-73
2022/09/02 08:44:54;;;;;;;3.20;2.90;;;19.10;99.90;;;;;;5014912;28;20391;-74
2022/09/02 08:47:25;;;;;;;3.60;3.08;;;19.10;99.90;;;;;;5043606;28;20462;-74
2022/09/02 08:49:59;;;;;;;3.00;2.80;;;19.20;99.90;;;;;;5037285;28;20470;-74
2022/09/02 08:52:42;;;;;;;2.85;2.65;;;19.20;99.90;;;;;;5030106;28;20387;-73
2022/09/02 08:55:18;;;;;;;2.53;2.33;;;19.20;99.90;;;;;;5022119;28;20741;-73
2022/09/02 08:57:44;;;;;;;3.27;2.50;;;19.20;99.90;;;;;;5042813;28;20406;-74
2022/09/02 09:00:12;;;;;;;2.80;2.50;;;19.30;99.90;;;;;;5038716;28;20812;-72
2022/09/02 09:03:15;;;;;;;3.90;2.60;;;19.40;99.90;;;;;;5025010;28;20512;-73
2022/09/02 09:05:52;;;;;;;2.90;2.70;;;19.40;99.90;;;;;;5041074;28;20540;-73
2022/09/02 09:08:42;;;;;;;2.92;2.72;;;19.40;99.90;;;;;;5031121;28;20779;-73
2022/09/02 09:11:37;;;;;;;4.20;2.72;;;19.50;99.90;;;;;;5037623;28;20394;-72
2022/09/02 09:14:25;;;;;;;2.92;2.50;;;19.60;99.90;;;;;;5045950;28;20473;-75
2022/09/02 09:16:59;;;;;;;2.40;2.20;;;19.60;99.90;;;;;;5041517;28;20401;-75
2022/09/02 09:19:46;;;;;;;3.05;2.85;;;19.80;99.90;;;;;;5022896;28;20436;-73
2022/09/02 09:22:15;;;;;;;3.20;2.40;;;19.70;99.90;;;;;;5043381;28;20440;-75
2022/09/02 09:24:44;;;;;;;2.70;2.50;;;19.80;99.90;;;;;;5039419;28;20397;-74
2022/09/02 09:27:21;;;;;;;3.00;2.70;;;20.00;99.90;;;;;;5031428;28;20409;-74
2022/09/02 09:29:48;;;;;;;2.92;2.72;;;20.20;99.90;;;;;;5049352;28;20454;-75
2022/09/02 09:32:27;;;;;;;2.95;2.60;;;20.20;99.10;;;;;;5049545;28;20476;-75
2022/09/02 09:34:58;;;;;;;2.65;2.40;;;20.20;98.80;;;;;;5049485;28;20373;-75
2022/09/02 09:37:34;;;;;;;2.60;2.40;;;20.30;97.50;;;;;;5034580;28;20391;-74
2022/09/02 09:40:00;;;;;;;2.60;2.40;;;20.30;97.80;;;;;;5029632;28;20405;-74
2022/09/02 09:42:36;;;;;;;3.40;3.10;;;20.30;97.50;;;;;;5046644;28;20406;-73
2022/09/02 09:45:35;;;;;;;3.13;2.67;;;20.30;98.00;;;;;;5047992;28;20853;-72
2022/09/02 09:48:07;;;;;;;2.60;2.40;;;20.40;97.80;;;;;;5003350;28;20486;-73
2022/09/02 09:50:32;;;;;;;3.28;2.97;;;20.50;98.20;;;;;;5043208;28;20398;-74
2022/09/02 09:53:19;;;;;;;2.80;2.60;;;20.50;97.40;;;;;;5034997;28;20479;-73
2022/09/02 09:55:55;;;;;;;2.53;2.25;;;20.50;96.10;;;;;;5035476;28;20413;-74
2022/09/02 09:58:25;;;;;;;2.42;2.22;;;20.60;96.50;;;;;;5026292;28;20804;-73
2022/09/02 10:00:55;;;;;;;2.97;2.25;;;20.70;96.40;;;;;;5040910;28;20811;-74
2022/09/02 10:03:24;;;;;;;2.90;2.50;;;20.90;95.60;;;;;;5048797;28;20867;-73
2022/09/02 10:05:54;;;;;;;3.42;2.28;;;20.80;94.30;;;;;;5032771;28;20431;-73
2022/09/02 10:08:26;;;;;;;2.30;2.10;;;20.90;94.20;;;;;;5052886;28;20381;-73
2022/09/02 10:10:54;;;;;;;2.92;2.35;;;21.00;93.30;;;;;;5052614;28;20469;-74
2022/09/02 10:13:26;;;;;;;2.40;2.20;;;21.00;93.60;;;;;;5052122;28;20464;-75
2022/09/02 10:16:11;;;;;;;2.60;2.40;;;21.20;92.80;;;;;;5052953;28;20382;-74
2022/09/02 10:18:53;;;;;;;2.22;2.00;;;21.30;92.00;;;;;;5052381;28;20549;-74
2022/09/02 10:21:28;;;;;;;2.40;2.00;;;21.20;91.30;;;;;;5052488;28;20895;-74
2022/09/02 10:24:08;;;;;;;2.60;2.40;;;21.30;92.00;;;;;;5052091;28;20384;-74
2022/09/02 10:26:45;;;;;;;2.40;2.30;;;21.50;91.50;;;;;;5052442;28;20440;-73
2022/09/02 10:29:34;;;;;;;2.35;2.13;;;21.40;91.30;;;;;;5034570;28;20385;-74
2022/09/02 10:32:12;;;;;;;2.13;2.00;;;21.60;91.10;;;;;;5052151;28;20436;-73
2022/09/02 10:34:46;;;;;;;2.50;2.30;;;21.60;90.30;;;;;;5052189;28;20428;-73
2022/09/02 10:37:23;;;;;;;2.35;2.15;;;21.70;90.70;;;;;;5034544;28;20389;-74
2022/09/02 10:40:08;;;;;;;2.60;2.40;;;21.80;91.40;;;;;;5051997;28;20456;-74
2022/09/02 10:42:50;;;;;;;2.10;1.90;;;21.90;90.60;;;;;;5034044;28;20405;-73
2022/09/02 10:45:23;;;;;;;3.45;2.20;;;21.80;88.80;;;;;;5052130;28;20469;-74
2022/09/02 10:48:00;;;;;;;2.58;2.30;;;21.90;90.90;;;;;;5034298;28;20392;-74
2022/09/02 10:50:47;;;;;;;2.30;2.10;;;22.10;90.20;;;;;;5052134;28;20382;-72
2022/09/02 10:53:19;;;;;;;2.47;2.28;;;22.20;86.80;;;;;;5051477;28;20377;-74
2022/09/02 10:56:00;;;;;;;2.33;2.13;;;22.40;86.60;;;;;;5052124;28;20385;-74
2022/09/02 10:58:47;;;;;;;2.47;2.00;;;22.50;86.80;;;;;;5051918;28;20389;-74
2022/09/02 11:01:19;;;;;;;2.38;2.17;;;22.50;85.30;;;;;;5051324;28;20401;-74
2022/09/02 11:04:20;;;;;;;1.90;1.80;;;22.60;85.10;;;;;;5051886;28;20377;-74
2022/09/02 11:06:48;;;;;;;2.40;2.00;;;22.80;83.50;;;;;;5046542;28;20461;-74
2022/09/02 11:09:32;;;;;;;2.33;2.13;;;22.80;82.40;;;;;;5051572;28;20415;-73
2022/09/02 11:12:15;;;;;;;2.45;2.25;;;22.90;81.70;;;;;;5051570;28;20790;-74
2022/09/02 11:15:05;;;;;;;3.67;2.10;;;23.10;82.70;;;;;;5050974;28;20378;-75
2022/09/02 11:17:51;;;;;;;1.88;1.77;;;23.10;83.00;;;;;;5050794;28;20413;-74
2022/09/02 11:20:41;;;;;;;2.25;2.05;;;23.30;80.90;;;;;;5033439;28;20479;-74
2022/09/02 11:23:45;;;;;;;2.90;2.40;;;23.50;81.00;;;;;;5051129;28;20833;-74
2022/09/02 11:26:31;;;;;;;2.00;1.90;;;23.70;78.60;;;;;;5051291;28;20432;-73
2022/09/02 11:29:01;;;;;;;3.10;2.33;;;23.80;77.70;;;;;;5050240;28;20386;-73
2022/09/02 11:31:42;;;;;;;2.38;2.17;;;24.30;75.60;;;;;;5051208;28;20385;-74
2022/09/02 11:34:37;;;;;;;2.30;2.10;;;24.90;77.70;;;;;;5051021;28;20416;-74
2022/09/02 11:37:09;;;;;;;2.00;1.80;;;25.60;70.50;;;;;;5050832;28;20902;-73
2022/09/02 11:39:44;;;;;;;1.80;1.70;;;26.60;67.60;;;;;;5033067;28;20389;-74
2022/09/02 11:42:39;;;;;;;1.60;1.50;;;26.70;65.00;;;;;;5050975;28;20502;-75
2022/09/02 11:45:17;;;;;;;2.10;1.70;;;26.70;64.90;;;;;;5041785;28;20395;-73
2022/09/02 11:47:52;;;;;;;2.20;1.90;;;27.40;61.70;;;;;;5033595;28;20392;-75
2022/09/02 11:50:34;;;;;;;2.00;1.90;;;27.30;63.60;;;;;;5028807;28;20397;-75
2022/09/02 11:53:40;;;;;;;2.00;1.80;;;26.50;68.20;;;;;;5041150;28;20855;-75
2022/09/02 11:56:23;;;;;;;1.80;1.70;;;27.10;64.20;;;;;;5037828;28;22167;-73
2022/09/02 11:58:51;;;;;;;1.80;1.70;;;27.90;60.00;;;;;;5023221;28;20472;-73
2022/09/02 12:01:37;;;;;;;1.70;1.60;;;27.80;59.40;;;;;;5040498;28;20405;-73
2022/09/02 12:04:20;;;;;;;2.50;1.50;;;27.00;62.60;;;;;;5039654;28;20409;-73
2022/09/02 12:07:11;;;;;;;2.53;1.90;;;27.80;60.60;;;;;;5044446;28;20406;-73
2022/09/02 12:09:53;;;;;;;2.60;1.80;;;28.50;58.40;;;;;;5032584;28;20474;-74
2022/09/02 12:12:37;;;;;;;3.60;1.70;;;27.50;57.90;;;;;;5039625;28;20475;-75
2022/09/02 12:15:07;;;;;;;2.20;2.00;;;27.80;58.00;;;;;;5043698;28;20409;-74
2022/09/02 12:18:22;;;;;;;2.10;1.80;;;27.40;59.10;;;;;;5038762;28;20521;-72
2022/09/02 12:21:04;;;;;;;2.20;2.00;;;27.40;59.50;;;;;;5039202;28;20779;-72
2022/09/02 12:23:59;;;;;;;2.30;1.90;;;27.30;61.30;;;;;;5020225;28;20476;-72
2022/09/02 12:26:36;;;;;;;1.90;1.80;;;27.30;62.50;;;;;;5015812;28;20780;-72
2022/09/02 12:29:23;;;;;;;2.60;2.00;;;26.90;62.40;;;;;;5044508;28;20389;-72
2022/09/02 12:31:50;;;;;;;2.00;1.90;;;27.10;60.40;;;;;;5034015;28;20944;-73
2022/09/02 12:34:19;;;;;;;1.65;1.55;;;26.50;60.20;;;;;;5037382;28;20426;-73
2022/09/02 12:36:47;;;;;;;2.00;1.80;;;26.70;61.10;;;;;;5044253;28;20405;-73
2022/09/02 12:39:26;;;;;;;2.30;1.88;;;26.70;62.40;;;;;;5026191;28;20409;-72
2022/09/02 12:42:07;;;;;;;1.70;1.60;;;26.70;61.80;;;;;;5021111;28;20447;-72
2022/09/02 12:45:06;;;;;;;2.05;1.85;;;26.90;64.50;;;;;;5036495;28;20743;-72
2022/09/02 12:48:05;;;;;;;2.10;1.90;;;26.10;63.20;;;;;;5029593;28;21005;-72
2022/09/02 12:50:50;;;;;;;2.15;1.95;;;26.40;65.80;;;;;;5030181;28;20409;-72
2022/09/02 12:53:22;;;;;;;3.10;2.20;;;26.80;63.60;;;;;;5011726;28;20418;-72
2022/09/02 12:56:03;;;;;;;1.75;1.65;;;27.00;64.00;;;;;;5030162;28;20437;-73
2022/09/02 12:58:38;;;;;;;1.70;1.60;;;27.20;63.60;;;;;;5029984;28;20387;-72
2022/09/02 13:01:28;;;;;;;3.10;1.80;;;27.20;64.20;;;;;;5012013;28;20402;-72
2022/09/02 13:03:56;;;;;;;2.10;1.90;;;27.50;60.70;;;;;;5029779;28;20387;-73
2022/09/02 13:06:41;;;;;;;2.20;2.00;;;26.70;60.50;;;;;;5029619;28;20455;-72
2022/09/02 13:09:21;;;;;;;2.30;2.10;;;27.20;64.80;;;;;;5012082;28;20817;-72